createdAt,value
2018-09-23T00:01:29.960Z,100203.00
2018-09-23T00:03:57.567Z,100203.00
2018-09-23T00:06:25.465Z,100203.00
2018-09-23T00:08:53.019Z,100198.00
2018-09-23T00:11:20.656Z,100188.00
2018-09-23T00:13:48.568Z,100186.00
2018-09-23T00:16:16.216Z,100181.00
2018-09-23T00:18:43.778Z,100191.00
2018-09-23T00:21:11.873Z,100190.00
2018-09-23T00:23:39.487Z,100192.00
2018-09-23T00:26:07.063Z,100188.00
2018-09-23T00:28:35.183Z,100183.00
2018-09-23T00:31:02.692Z,100173.00
2018-09-23T00:33:30.266Z,100164.00
2018-09-23T00:35:58.201Z,100173.00
2018-09-23T00:38:25.779Z,100171.00
2018-09-23T00:40:53.340Z,100170.00
2018-09-23T00:43:21.198Z,100157.00
2018-09-23T00:45:48.827Z,100158.00
2018-09-23T00:48:16.432Z,100156.00
2018-09-23T00:50:44.392Z,100150.00
2018-09-23T00:53:11.503Z,100152.00
2018-09-23T00:55:39.085Z,100152.00
2018-09-23T00:58:06.905Z,100157.00
2018-09-23T01:00:34.434Z,100150.00
2018-09-23T01:03:01.960Z,100145.00
2018-09-23T01:05:29.652Z,100134.00
2018-09-23T01:07:57.208Z,100135.00
2018-09-23T01:10:24.791Z,100132.00
2018-09-23T01:12:52.584Z,100134.00
2018-09-23T01:15:20.109Z,100132.00
2018-09-23T01:17:47.734Z,100137.00
2018-09-23T01:20:15.323Z,100132.00
2018-09-23T01:22:42.888Z,100136.00
2018-09-23T01:25:10.508Z,100130.00
2018-09-23T01:27:39.828Z,100132.00
2018-09-23T01:30:07.400Z,100137.00
2018-09-23T01:32:35.256Z,100136.00
2018-09-23T01:35:03.596Z,100134.00
2018-09-23T01:37:31.420Z,100127.00
2018-09-23T01:39:59.016Z,100133.00
2018-09-23T01:42:26.593Z,100131.00
2018-09-23T01:44:54.407Z,100130.00
2018-09-23T01:47:21.959Z,100121.00
2018-09-23T01:49:49.496Z,100121.00
2018-09-23T01:52:17.462Z,100119.00
2018-09-23T01:54:45.529Z,100124.00
2018-09-23T01:57:13.120Z,100117.00
2018-09-23T01:59:41.281Z,100118.00
2018-09-23T02:02:08.864Z,100110.00
2018-09-23T02:04:36.789Z,100107.00
2018-09-23T02:07:04.461Z,100105.00
2018-09-23T02:09:32.082Z,100107.00
2018-09-23T02:11:59.958Z,100107.00
2018-09-23T02:14:27.558Z,100105.00
2018-09-23T02:16:55.196Z,100101.00
2018-09-23T02:19:23.242Z,100097.00
2018-09-23T02:21:50.798Z,100093.00
2018-09-23T02:24:18.448Z,100099.00
2018-09-23T02:26:46.189Z,100093.00
2018-09-23T02:29:13.718Z,100091.00
2018-09-23T02:31:41.258Z,100085.00
2018-09-23T02:34:09.309Z,100084.00
2018-09-23T02:36:36.869Z,100080.00
2018-09-23T02:39:07.088Z,100085.00
2018-09-23T02:41:34.990Z,100090.00
2018-09-23T02:44:02.761Z,100093.00
2018-09-23T02:46:30.313Z,100095.00
2018-09-23T02:48:58.276Z,100092.00
2018-09-23T02:51:25.929Z,100085.00
2018-09-23T02:53:53.469Z,100075.00
2018-09-23T02:56:21.123Z,100076.00
2018-09-23T02:58:48.688Z,100086.00
2018-09-23T03:01:16.296Z,100078.00
2018-09-23T03:03:44.485Z,100074.00
2018-09-23T03:06:12.061Z,100067.00
2018-09-23T03:08:39.665Z,100064.00
2018-09-23T03:11:07.450Z,100066.00
2018-09-23T03:13:35.005Z,100067.00
2018-09-23T03:16:02.532Z,100062.00
2018-09-23T03:18:30.491Z,100062.00
2018-09-23T03:20:58.041Z,100061.00
2018-09-23T03:23:25.635Z,100060.00
2018-09-23T03:25:53.846Z,100053.00
2018-09-23T03:28:21.385Z,100059.00
2018-09-23T03:30:48.945Z,100058.00
2018-09-23T03:33:16.664Z,100047.00
2018-09-23T03:35:44.274Z,100041.00
2018-09-23T03:38:11.808Z,100034.00
2018-09-23T03:40:39.745Z,100026.00
2018-09-23T03:43:07.333Z,100029.00
2018-09-23T03:45:34.886Z,100035.00
2018-09-23T03:48:02.700Z,100034.00
2018-09-23T03:50:30.296Z,100029.00
2018-09-23T03:52:58.602Z,100020.00
2018-09-23T03:55:26.237Z,100020.00
2018-09-23T03:57:53.929Z,100021.00
2018-09-23T04:00:21.522Z,100013.00
2018-09-23T04:02:49.329Z,100016.00
2018-09-23T04:05:16.865Z,100017.00
2018-09-23T04:07:44.467Z,100011.00
2018-09-23T04:10:12.741Z,100011.00
2018-09-23T04:12:40.318Z,100002.00
2018-09-23T04:15:07.955Z,100000.00
2018-09-23T04:17:35.561Z,100005.00
2018-09-23T04:20:03.196Z,99994.00
2018-09-23T04:22:36.013Z,99991.00
2018-09-23T04:25:03.625Z,100000.00
2018-09-23T04:27:31.194Z,100007.00
2018-09-23T04:29:58.970Z,100004.00
2018-09-23T04:32:26.539Z,100002.00
2018-09-23T04:35:31.920Z,99996.00
2018-09-23T04:37:59.558Z,99996.00
2018-09-23T04:40:28.006Z,99991.00
2018-09-23T04:42:55.622Z,99989.00
2018-09-23T04:45:23.309Z,99988.00
2018-09-23T04:47:50.892Z,99976.00
2018-09-23T04:50:18.492Z,99978.00
2018-09-23T04:52:46.358Z,99983.00
2018-09-23T04:55:14.012Z,99979.00
2018-09-23T04:57:41.161Z,99974.00
2018-09-23T05:00:08.960Z,99973.00
2018-09-23T05:02:36.769Z,99969.00
2018-09-23T05:05:04.393Z,99973.00
2018-09-23T05:07:32.113Z,99980.00
2018-09-23T05:10:00.121Z,99973.00
2018-09-23T05:12:27.682Z,99974.00
2018-09-23T05:14:55.237Z,99979.00
2018-09-23T05:17:22.850Z,99979.00
2018-09-23T05:19:50.427Z,99979.00
2018-09-23T05:22:18.088Z,99976.00
2018-09-23T05:24:45.848Z,99981.00
2018-09-23T05:27:13.493Z,99979.00
2018-09-23T05:30:19.185Z,99974.00
2018-09-23T05:32:46.753Z,99974.00
2018-09-23T05:35:14.635Z,99965.00
2018-09-23T05:37:42.436Z,99958.00
2018-09-23T05:40:25.228Z,99951.00
2018-09-23T05:42:53.104Z,99954.00
2018-09-23T05:45:20.768Z,99963.00
2018-09-23T05:47:48.424Z,99961.00
2018-09-23T05:50:16.299Z,99961.00
2018-09-23T05:52:43.962Z,99954.00
2018-09-23T05:55:12.227Z,99951.00
2018-09-23T05:57:40.953Z,99956.00
2018-09-23T06:00:09.744Z,99955.00
2018-09-23T06:02:37.844Z,99944.00
2018-09-23T06:05:05.421Z,99937.00
2018-09-23T06:07:33.057Z,99927.00
2018-09-23T06:10:01.098Z,99922.00
2018-09-23T06:12:28.612Z,99930.00
2018-09-23T06:14:56.208Z,99921.00
2018-09-23T06:17:24.074Z,99912.00
2018-09-23T06:19:51.596Z,99901.00
2018-09-23T06:22:19.205Z,99898.00
2018-09-23T06:24:47.158Z,99892.00
2018-09-23T06:27:14.788Z,99882.00
2018-09-23T06:29:42.469Z,99892.00
2018-09-23T06:32:10.880Z,99893.00
2018-09-23T06:34:38.692Z,99890.00
2018-09-23T06:37:07.330Z,99892.00
2018-09-23T06:39:35.334Z,99902.00
2018-09-23T06:42:02.910Z,99903.00
2018-09-23T06:44:30.721Z,99900.00
2018-09-23T06:46:59.057Z,99898.00
2018-09-23T06:49:26.606Z,99895.00
2018-09-23T06:51:54.372Z,99895.00
2018-09-23T06:54:22.245Z,99890.00
2018-09-23T06:56:49.887Z,99877.00
2018-09-23T06:59:17.665Z,99864.00
2018-09-23T07:01:45.451Z,99876.00
2018-09-23T07:04:13.077Z,99880.00
2018-09-23T07:06:40.639Z,99878.00
2018-09-23T07:09:08.265Z,99884.00
2018-09-23T07:11:36.237Z,99885.00
2018-09-23T07:14:03.825Z,99888.00
2018-09-23T07:16:31.419Z,99898.00
2018-09-23T07:18:59.126Z,99892.00
2018-09-23T07:21:26.881Z,99898.00
2018-09-23T07:23:54.795Z,99896.00
2018-09-23T07:26:22.437Z,99893.00
2018-09-23T07:28:50.539Z,99887.00
2018-09-23T07:31:18.387Z,99883.00
2018-09-23T07:33:45.869Z,99889.00
2018-09-23T07:36:13.721Z,99875.00
2018-09-23T07:38:41.429Z,99870.00
2018-09-23T07:41:09.081Z,99869.00
2018-09-23T07:43:36.945Z,99861.00
2018-09-23T07:46:04.530Z,99866.00
2018-09-23T07:48:32.101Z,99874.00
2018-09-23T07:50:59.720Z,99879.00
2018-09-23T07:53:27.370Z,99881.00
2018-09-23T07:55:54.988Z,99887.00
2018-09-23T07:58:22.417Z,99872.00
2018-09-23T08:00:50.225Z,99855.00
2018-09-23T08:03:18.098Z,99842.00
2018-09-23T08:05:45.675Z,99841.00
2018-09-23T08:08:13.297Z,99838.00
2018-09-23T08:10:41.156Z,99838.00
2018-09-23T08:13:08.959Z,99841.00
2018-09-23T08:15:36.488Z,99836.00
2018-09-23T08:18:04.352Z,99847.00
2018-09-23T08:20:31.945Z,99856.00
2018-09-23T08:22:59.715Z,99872.00
2018-09-23T08:25:27.756Z,99877.00
2018-09-23T08:27:55.384Z,99871.00
2018-09-23T08:30:23.038Z,99861.00
2018-09-23T08:32:51.025Z,99848.00
2018-09-23T08:35:18.586Z,99842.00
2018-09-23T08:37:46.172Z,99831.00
2018-09-23T08:40:14.041Z,99835.00
2018-09-23T08:42:41.996Z,99846.00
2018-09-23T08:45:09.656Z,99844.00
2018-09-23T08:47:37.274Z,99836.00
2018-09-23T08:50:04.851Z,99833.00
2018-09-23T08:52:33.110Z,99836.00
2018-09-23T08:55:01.141Z,99830.00
2018-09-23T08:57:28.786Z,99823.00
2018-09-23T08:59:56.951Z,99811.00
2018-09-23T09:02:24.766Z,99792.00
2018-09-23T09:04:52.378Z,99797.00
2018-09-23T09:07:20.265Z,99801.00
2018-09-23T09:09:48.023Z,99791.00
2018-09-23T09:12:15.616Z,99784.00
2018-09-23T09:14:43.457Z,99789.00
2018-09-23T09:17:11.017Z,99791.00
2018-09-23T09:19:38.961Z,99791.00
2018-09-23T09:22:07.509Z,99794.00
2018-09-23T09:24:35.111Z,99787.00
2018-09-23T09:27:02.811Z,99784.00
2018-09-23T09:29:30.814Z,99787.00
2018-09-23T09:31:58.451Z,99783.00
2018-09-23T09:34:25.980Z,99772.00
2018-09-23T09:36:53.560Z,99770.00
2018-09-23T09:39:21.097Z,99772.00
2018-09-23T09:41:48.714Z,99765.00
2018-09-23T09:44:16.382Z,99762.00
2018-09-23T09:46:44.014Z,99761.00
2018-09-23T09:49:11.626Z,99754.00
2018-09-23T09:51:39.187Z,99751.00
2018-09-23T09:54:06.852Z,99739.00
2018-09-23T09:56:34.545Z,99756.00
2018-09-23T09:59:02.302Z,99741.00
2018-09-23T10:01:30.389Z,99727.00
2018-09-23T10:03:58.321Z,99730.00
2018-09-23T10:06:25.905Z,99716.00
2018-09-23T10:08:53.502Z,99699.00
2018-09-23T10:11:21.304Z,99697.00
2018-09-23T10:13:48.896Z,99699.00
2018-09-23T10:16:16.458Z,99710.00
2018-09-23T10:18:44.182Z,99700.00
2018-09-23T10:21:11.765Z,99697.00
2018-09-23T10:23:40.186Z,99699.00
2018-09-23T10:26:07.597Z,99702.00
2018-09-23T10:28:35.307Z,99689.00
2018-09-23T10:31:03.336Z,99682.00
2018-09-23T10:33:30.813Z,99682.00
2018-09-23T10:35:58.353Z,99669.00
2018-09-23T10:38:26.303Z,99663.00
2018-09-23T10:40:53.891Z,99666.00
2018-09-23T10:43:21.717Z,99652.00
2018-09-23T10:45:49.397Z,99653.00
2018-09-23T10:48:17.069Z,99643.00
2018-09-23T10:50:44.764Z,99641.00
2018-09-23T10:53:12.828Z,99634.00
2018-09-23T10:55:40.443Z,99627.00
2018-09-23T10:58:08.032Z,99633.00
2018-09-23T11:00:35.796Z,99628.00
2018-09-23T11:03:03.879Z,99622.00
2018-09-23T11:05:31.509Z,99609.00
2018-09-23T11:07:59.091Z,99604.00
2018-09-23T11:10:26.691Z,99595.00
2018-09-23T11:12:54.581Z,99580.00
2018-09-23T11:15:22.185Z,99576.00
2018-09-23T11:17:49.753Z,99570.00
2018-09-23T11:20:17.717Z,99574.00
2018-09-23T11:22:45.367Z,99569.00
2018-09-23T11:25:12.930Z,99553.00
2018-09-23T11:27:40.916Z,99547.00
2018-09-23T11:30:08.624Z,99541.00
2018-09-23T11:32:36.548Z,99533.00
2018-09-23T11:35:04.153Z,99518.00
2018-09-23T11:37:31.705Z,99521.00
2018-09-23T11:39:59.556Z,99521.00
2018-09-23T11:42:27.109Z,99508.00
2018-09-23T11:44:54.765Z,99484.00
2018-09-23T11:47:22.660Z,99484.00
2018-09-23T11:49:50.232Z,99486.00
2018-09-23T11:52:17.861Z,99474.00
2018-09-23T11:54:45.749Z,99452.00
2018-09-23T11:57:13.329Z,99443.00
2018-09-23T11:59:40.933Z,99432.00
2018-09-23T12:02:08.545Z,99424.00
2018-09-23T12:04:36.187Z,99418.00
2018-09-23T12:07:03.710Z,99407.00
2018-09-23T12:09:31.542Z,99407.00
2018-09-23T12:11:59.188Z,99386.00
2018-09-23T12:14:26.809Z,99382.00
2018-09-23T12:16:54.880Z,99375.00
2018-09-23T12:19:22.425Z,99360.00
2018-09-23T12:21:50.004Z,99344.00
2018-09-23T12:24:17.885Z,99338.00
2018-09-23T12:26:45.490Z,99325.00
2018-09-23T12:29:13.172Z,99320.00
2018-09-23T12:31:40.924Z,99315.00
2018-09-23T12:34:08.513Z,99300.00
2018-09-23T12:36:36.065Z,99289.00
2018-09-23T12:39:06.928Z,99277.00
2018-09-23T12:41:34.511Z,99274.00
2018-09-23T12:44:02.038Z,99261.00
2018-09-23T12:46:29.756Z,99242.00
2018-09-23T12:48:57.398Z,99223.00
2018-09-23T12:51:24.997Z,99225.00
2018-09-23T12:53:52.628Z,99209.00
2018-09-23T12:56:20.173Z,99193.00
2018-09-23T12:58:47.692Z,99189.00
2018-09-23T13:01:15.722Z,99173.00
2018-09-23T13:03:44.061Z,99156.00
2018-09-23T13:06:11.644Z,99146.00
2018-09-23T13:08:39.374Z,99130.00
2018-09-23T13:11:06.890Z,99115.00
2018-09-23T13:13:34.509Z,99101.00
2018-09-23T13:16:02.331Z,99084.00
2018-09-23T13:18:29.882Z,99069.00
2018-09-23T13:20:57.504Z,99060.00
2018-09-23T13:23:25.252Z,99057.00
2018-09-23T13:25:52.845Z,99040.00
2018-09-23T13:28:20.388Z,99037.00
2018-09-23T13:30:48.142Z,99037.00
2018-09-23T13:33:15.713Z,99028.00
2018-09-23T13:35:43.482Z,99007.00
2018-09-23T13:38:11.061Z,98991.00
2018-09-23T13:40:38.661Z,98974.00
2018-09-23T13:43:06.565Z,98955.00
2018-09-23T13:45:34.100Z,98925.00
2018-09-23T13:48:01.704Z,98922.00
2018-09-23T13:50:29.350Z,98918.00
2018-09-23T13:52:57.084Z,98908.00
2018-09-23T13:55:24.645Z,98911.00
2018-09-23T13:57:52.501Z,98902.00
2018-09-23T14:00:20.029Z,98895.00
2018-09-23T14:02:47.846Z,98897.00
2018-09-23T14:05:15.309Z,98886.00
2018-09-23T14:07:42.918Z,98856.00
2018-09-23T14:10:10.540Z,98854.00
2018-09-23T14:12:38.145Z,98837.00
2018-09-23T14:15:05.957Z,98823.00
2018-09-23T14:17:33.577Z,98816.00
2018-09-23T14:20:01.144Z,98806.00
2018-09-23T14:22:29.067Z,98800.00
2018-09-23T14:24:56.606Z,98772.00
2018-09-23T14:27:24.217Z,98753.00
2018-09-23T14:29:51.961Z,98744.00
2018-09-23T14:32:19.541Z,98737.00
2018-09-23T14:34:47.328Z,98726.00
2018-09-23T14:37:14.949Z,98707.00
2018-09-23T14:39:42.609Z,98711.00
2018-09-23T14:42:10.430Z,98709.00
2018-09-23T14:44:38.302Z,98670.00
2018-09-23T14:47:05.933Z,98670.00
2018-09-23T14:49:33.509Z,98638.00
2018-09-23T14:52:01.278Z,98646.00
2018-09-23T14:54:29.018Z,98608.00
2018-09-23T14:56:56.689Z,98587.00
2018-09-23T14:59:24.481Z,98611.00
2018-09-23T15:01:52.181Z,98601.00
2018-09-23T15:04:20.040Z,98589.00
2018-09-23T15:06:48.107Z,98584.00
2018-09-23T15:09:15.272Z,98588.00
2018-09-23T15:11:42.883Z,98602.00
2018-09-23T15:14:10.493Z,98608.00
2018-09-23T15:16:38.081Z,98594.00
2018-09-23T15:19:05.977Z,98576.00
2018-09-23T15:21:33.649Z,98560.00
2018-09-23T15:24:01.374Z,98548.00
2018-09-23T15:26:29.219Z,98545.00
2018-09-23T15:28:56.837Z,98518.00
2018-09-23T15:31:24.421Z,98484.00
2018-09-23T15:33:52.547Z,98493.00
2018-09-23T15:36:20.109Z,98501.00
2018-09-23T15:38:48.297Z,98460.00
2018-09-23T15:41:19.769Z,98473.00
2018-09-23T15:43:57.295Z,98456.00
2018-09-23T15:46:25.133Z,98403.00
2018-09-23T15:49:14.501Z,98430.00
2018-09-23T15:51:42.826Z,98418.00
2018-09-23T15:54:10.528Z,98361.00
2018-09-23T15:56:38.100Z,98382.00
2018-09-23T15:59:06.343Z,98391.00
2018-09-23T16:01:33.933Z,98388.00
2018-09-23T16:04:01.829Z,98393.00
2018-09-23T16:06:29.573Z,98419.00
2018-09-23T16:08:57.189Z,98480.00
2018-09-23T16:11:24.776Z,98492.00
2018-09-23T16:13:52.404Z,98437.00
2018-09-23T16:16:20.066Z,98391.00
2018-09-23T16:18:48.041Z,98375.00
2018-09-23T16:21:15.456Z,98344.00
2018-09-23T16:23:43.011Z,98417.00
2018-09-23T16:26:10.694Z,98458.00
2018-09-23T16:28:38.257Z,98434.00
2018-09-23T16:31:05.823Z,98396.00
2018-09-23T16:33:33.717Z,98408.00
2018-09-23T16:36:01.533Z,98464.00
2018-09-23T16:38:30.269Z,98535.00
2018-09-23T16:40:58.445Z,98498.00
2018-09-23T16:43:26.036Z,98441.00
2018-09-23T16:45:53.600Z,98400.00
2018-09-23T16:48:21.722Z,98395.00
2018-09-23T16:50:49.420Z,98317.00
2018-09-23T16:53:16.959Z,98248.00
2018-09-23T16:55:46.985Z,98382.00
2018-09-23T16:58:14.644Z,98402.00
2018-09-23T17:00:42.279Z,98422.00
2018-09-23T17:03:10.316Z,98423.00
2018-09-23T17:05:37.837Z,98429.00
2018-09-23T17:08:05.733Z,98404.00
2018-09-23T17:10:33.531Z,98401.00
2018-09-23T17:13:01.514Z,98398.00
2018-09-23T17:15:29.110Z,98391.00
2018-09-23T17:17:56.802Z,98399.00
2018-09-23T17:20:24.697Z,98446.00
2018-09-23T17:22:52.225Z,98450.00
2018-09-23T17:25:19.960Z,98460.00
2018-09-23T17:27:47.624Z,98463.00
2018-09-23T17:30:15.199Z,98400.00
2018-09-23T17:32:42.806Z,98384.00
2018-09-23T17:35:10.522Z,98332.00
2018-09-23T17:37:38.426Z,98286.00
2018-09-23T17:40:05.973Z,98293.00
2018-09-23T17:42:33.736Z,98288.00
2018-09-23T17:45:01.372Z,98316.00
2018-09-23T17:47:28.983Z,98307.00
2018-09-23T17:49:56.857Z,98325.00
2018-09-23T17:52:24.455Z,98343.00
2018-09-23T17:54:52.257Z,98355.00
2018-09-23T17:57:19.769Z,98378.00
2018-09-23T17:59:47.310Z,98441.00
2018-09-23T18:02:14.945Z,98511.00
2018-09-23T18:04:42.505Z,98564.00
2018-09-23T18:07:10.072Z,98569.00
2018-09-23T18:09:38.256Z,98533.00
2018-09-23T18:12:05.856Z,98491.00
2018-09-23T18:14:33.426Z,98505.00
2018-09-23T18:17:01.564Z,98551.00
2018-09-23T18:19:29.170Z,98574.00
2018-09-23T18:21:56.760Z,98590.00
2018-09-23T18:24:24.331Z,98575.00
2018-09-23T18:26:52.311Z,98581.00
2018-09-23T18:29:19.876Z,98619.00
2018-09-23T18:31:47.500Z,98625.00
2018-09-23T18:34:15.258Z,98636.00
2018-09-23T18:36:42.925Z,98641.00
2018-09-23T18:39:10.500Z,98656.00
2018-09-23T18:41:38.049Z,98653.00
2018-09-23T18:44:05.876Z,98670.00
2018-09-23T18:46:33.681Z,98658.00
2018-09-23T18:49:01.358Z,98637.00
2018-09-23T18:51:28.913Z,98668.00
2018-09-23T18:54:02.621Z,98694.00
2018-09-23T18:56:30.176Z,98707.00
2018-09-23T18:58:57.862Z,98706.00
2018-09-23T19:01:25.522Z,98696.00
2018-09-23T19:03:53.207Z,98717.00
2018-09-23T19:06:20.792Z,98743.00
2018-09-23T19:08:48.701Z,98751.00
2018-09-23T19:11:16.292Z,98784.00
2018-09-23T19:13:50.089Z,98850.00
2018-09-23T19:16:23.589Z,98867.00
2018-09-23T19:18:51.669Z,98881.00
2018-09-23T19:21:19.348Z,98893.00
2018-09-23T19:23:47.188Z,98911.00
2018-09-23T19:26:15.188Z,98932.00
2018-09-23T19:28:42.890Z,98925.00
2018-09-23T19:31:10.528Z,98930.00
2018-09-23T19:33:38.385Z,98922.00
2018-09-23T19:36:06.036Z,98909.00
2018-09-23T19:38:33.752Z,98890.00
2018-09-23T19:41:02.050Z,98908.00
2018-09-23T19:43:29.808Z,98917.00
2018-09-23T19:45:57.499Z,98937.00
2018-09-23T19:48:25.243Z,98988.00
2018-09-23T19:50:52.888Z,99023.00
2018-09-23T19:53:20.597Z,99092.00
2018-09-23T19:55:48.595Z,99135.00
2018-09-23T19:58:16.292Z,99169.00
2018-09-23T20:00:43.905Z,99182.00
2018-09-23T20:03:11.512Z,99198.00
2018-09-23T20:05:39.097Z,99184.00
2018-09-23T20:08:06.733Z,99173.00
2018-09-23T20:10:35.407Z,99140.00
2018-09-23T20:13:03.031Z,99126.00
2018-09-23T20:15:30.629Z,99113.00
2018-09-23T20:17:58.328Z,99135.00
2018-09-23T20:20:25.902Z,99168.00
2018-09-23T20:22:53.497Z,99167.00
2018-09-23T20:25:21.364Z,99176.00
2018-09-23T20:27:48.969Z,99223.00
2018-09-23T20:30:16.550Z,99339.00
2018-09-23T20:32:44.472Z,99400.00
2018-09-23T20:35:12.046Z,99374.00
2018-09-23T20:37:39.667Z,99305.00
2018-09-23T20:40:07.980Z,99312.00
2018-09-23T20:42:35.644Z,99353.00
2018-09-23T20:45:03.429Z,99372.00
2018-09-23T20:47:31.474Z,99400.00
2018-09-23T20:49:59.017Z,99423.00
2018-09-23T20:52:26.629Z,99425.00
2018-09-23T20:54:54.460Z,99407.00
2018-09-23T20:57:22.001Z,99443.00
2018-09-23T20:59:49.556Z,99432.00
2018-09-23T21:02:17.405Z,99466.00
2018-09-23T21:04:45.090Z,99487.00
2018-09-23T21:07:12.659Z,99518.00
2018-09-23T21:09:40.577Z,99492.00
2018-09-23T21:12:08.123Z,99518.00
2018-09-23T21:14:35.672Z,99537.00
2018-09-23T21:17:03.914Z,99542.00
2018-09-23T21:19:31.436Z,99550.00
2018-09-23T21:21:59.028Z,99576.00
2018-09-23T21:24:26.869Z,99579.00
2018-09-23T21:26:54.425Z,99602.00
2018-09-23T21:29:22.049Z,99610.00
2018-09-23T21:31:49.946Z,99617.00
2018-09-23T21:34:17.613Z,99619.00
2018-09-23T21:36:45.168Z,99623.00
2018-09-23T21:39:12.928Z,99644.00
2018-09-23T21:41:40.560Z,99657.00
2018-09-23T21:44:08.346Z,99667.00
2018-09-23T21:46:36.401Z,99675.00
2018-09-23T21:49:03.929Z,99685.00
2018-09-23T21:51:31.499Z,99685.00
2018-09-23T21:53:59.319Z,99694.00
2018-09-23T21:56:27.144Z,99691.00
2018-09-23T21:58:54.701Z,99702.00
2018-09-23T22:01:22.540Z,99710.00
2018-09-23T22:03:50.058Z,99727.00
2018-09-23T22:06:17.637Z,99743.00
2018-09-23T22:08:45.052Z,99751.00
2018-09-23T22:11:12.573Z,99757.00
2018-09-23T22:13:40.385Z,99768.00
2018-09-23T22:16:07.941Z,99781.00
2018-09-23T22:18:35.466Z,99785.00
2018-09-23T22:21:03.649Z,99794.00
2018-09-23T22:23:31.189Z,99803.00
2018-09-23T22:25:58.719Z,99810.00
2018-09-23T22:28:27.068Z,99821.00
2018-09-23T22:30:54.589Z,99832.00
2018-09-23T22:33:22.099Z,99839.00
2018-09-23T22:35:50.188Z,99853.00
2018-09-23T22:38:17.737Z,99862.00
2018-09-23T22:40:50.520Z,99862.00
2018-09-23T22:43:18.140Z,99867.00
2018-09-23T22:45:45.688Z,99866.00
2018-09-23T22:48:13.230Z,99872.00
2018-09-23T22:50:40.785Z,99877.00
2018-09-23T22:53:08.298Z,99883.00
2018-09-23T22:55:35.846Z,99886.00
2018-09-23T22:58:03.423Z,99888.00
2018-09-23T23:00:30.982Z,99892.00
2018-09-23T23:02:58.560Z,99897.00
2018-09-23T23:05:26.183Z,99901.00
2018-09-23T23:07:53.681Z,99904.00
2018-09-23T23:10:21.367Z,99911.00
2018-09-23T23:12:49.393Z,99916.00
2018-09-23T23:15:16.916Z,99919.00
2018-09-23T23:17:44.492Z,99921.00
2018-09-23T23:20:12.184Z,99934.00
2018-09-23T23:22:39.738Z,99938.00
2018-09-23T23:25:07.313Z,99935.00
2018-09-23T23:27:35.054Z,99944.00
2018-09-23T23:30:02.683Z,99943.00
2018-09-23T23:32:30.193Z,99954.00
2018-09-23T23:34:58.172Z,99959.00
2018-09-23T23:37:25.750Z,99982.00
2018-09-23T23:39:53.272Z,99984.00
2018-09-23T23:42:20.846Z,99982.00
2018-09-23T23:44:48.420Z,99986.00
2018-09-23T23:47:15.984Z,99994.00
2018-09-23T23:49:43.755Z,100002.00
2018-09-23T23:52:11.385Z,100006.00
2018-09-23T23:54:38.950Z,100011.00
2018-09-23T23:57:06.772Z,100016.00
2018-09-23T23:59:34.277Z,100020.00
